createdAt,value
2019-05-05T00:00:55.083Z,3.55
2019-05-05T00:03:44.449Z,3.67
2019-05-05T00:06:15.772Z,3.62
2019-05-05T00:08:47.355Z,6.85
2019-05-05T00:11:37.200Z,5.50
2019-05-05T00:14:39.832Z,5.55
2019-05-05T00:17:18.351Z,7.25
2019-05-05T00:19:49.734Z,5.90
2019-05-05T00:22:21.384Z,8.50
2019-05-05T00:24:54.640Z,5.17
2019-05-05T00:27:26.524Z,5.58
2019-05-05T00:29:59.446Z,7.97
2019-05-05T00:32:31.172Z,3.87
2019-05-05T00:35:04.339Z,4.85
2019-05-05T00:37:36.279Z,7.25
2019-05-05T00:40:07.909Z,4.20
2019-05-05T00:42:39.501Z,2.55
2019-05-05T00:45:11.476Z,3.95
2019-05-05T00:48:07.808Z,3.35
2019-05-05T00:50:39.610Z,4.55
2019-05-05T00:53:11.319Z,5.45
2019-05-05T00:55:44.255Z,5.47
2019-05-05T00:58:15.946Z,4.10
2019-05-05T01:00:54.853Z,4.97
2019-05-05T01:03:27.876Z,4.10
2019-05-05T01:06:15.165Z,5.75
2019-05-05T01:08:47.222Z,5.00
2019-05-05T01:11:19.408Z,5.10
2019-05-05T01:13:51.104Z,6.25
2019-05-05T01:16:24.770Z,6.65
2019-05-05T01:18:56.283Z,5.75
2019-05-05T01:21:28.041Z,4.08
2019-05-05T01:23:59.800Z,5.53
2019-05-05T01:26:31.339Z,4.87
2019-05-05T01:29:05.289Z,7.28
2019-05-05T01:31:38.601Z,4.40
2019-05-05T01:34:26.235Z,3.40
2019-05-05T01:37:06.337Z,4.12
2019-05-05T01:39:47.143Z,3.92
2019-05-05T01:42:19.140Z,3.67
2019-05-05T01:44:50.809Z,4.28
2019-05-05T01:47:22.440Z,4.55
2019-05-05T01:49:54.543Z,4.03
2019-05-05T01:54:58.074Z,4.40
2019-05-05T01:57:30.079Z,5.28
2019-05-05T02:00:04.247Z,4.37
2019-05-05T02:02:36.509Z,2.90
2019-05-05T02:05:09.358Z,3.55
2019-05-05T02:07:41.012Z,5.47
2019-05-05T02:10:15.274Z,5.05
2019-05-05T02:12:46.919Z,4.58
2019-05-05T02:15:18.935Z,3.15
2019-05-05T02:17:51.600Z,3.22
2019-05-05T02:21:01.364Z,6.37
2019-05-05T02:23:35.131Z,2.83
2019-05-05T02:26:08.150Z,2.45
2019-05-05T02:28:59.165Z,3.62
2019-05-05T02:31:55.051Z,4.70
2019-05-05T02:34:27.467Z,6.25
2019-05-05T02:37:00.233Z,4.87
2019-05-05T02:39:35.232Z,4.45
2019-05-05T02:42:05.944Z,5.37
2019-05-05T02:44:38.308Z,4.03
2019-05-05T02:47:30.418Z,3.15
2019-05-05T02:50:05.452Z,3.33
2019-05-05T02:52:39.795Z,4.80
2019-05-05T02:55:14.666Z,4.00
2019-05-05T02:57:46.921Z,3.72
2019-05-05T03:00:37.468Z,5.22
2019-05-05T03:03:09.867Z,4.75
2019-05-05T03:05:43.479Z,4.80
2019-05-05T03:08:15.401Z,5.85
2019-05-05T03:10:47.263Z,8.78
2019-05-05T03:13:20.162Z,11.03
2019-05-05T03:15:55.232Z,10.43
2019-05-05T03:18:27.201Z,6.70
2019-05-05T03:21:04.475Z,4.45
2019-05-05T03:23:33.467Z,4.95
2019-05-05T03:26:05.608Z,8.60
2019-05-05T03:28:44.407Z,6.08
2019-05-05T03:31:16.428Z,5.42
2019-05-05T03:33:48.049Z,7.25
2019-05-05T03:36:20.392Z,7.28
2019-05-05T03:38:54.132Z,8.80
2019-05-05T03:41:34.470Z,7.58
2019-05-05T03:44:14.957Z,7.45
2019-05-05T03:46:47.005Z,6.37
2019-05-05T03:49:19.225Z,7.15
2019-05-05T03:51:51.113Z,4.83
2019-05-05T03:54:23.861Z,4.60
2019-05-05T03:57:11.431Z,7.28
2019-05-05T03:59:44.430Z,5.25
2019-05-05T04:02:34.141Z,8.25
2019-05-05T04:05:25.416Z,5.00
2019-05-05T04:07:57.455Z,3.70
2019-05-05T04:10:29.389Z,5.58
2019-05-05T04:13:04.678Z,4.17
2019-05-05T04:15:37.892Z,5.83
2019-05-05T04:18:25.501Z,3.00
2019-05-05T04:20:57.238Z,9.85
2019-05-05T04:23:29.158Z,5.42
2019-05-05T04:26:00.954Z,5.50
2019-05-05T04:28:34.543Z,7.70
2019-05-05T04:31:06.337Z,6.70
2019-05-05T04:33:38.104Z,6.15
2019-05-05T04:36:09.902Z,5.58
2019-05-05T04:38:41.338Z,5.85
2019-05-05T04:41:14.047Z,7.28
2019-05-05T04:43:45.821Z,8.75
2019-05-05T04:46:17.304Z,5.60
2019-05-05T04:49:10.763Z,8.38
2019-05-05T04:51:50.089Z,10.63
2019-05-05T04:54:24.454Z,12.82
2019-05-05T04:56:55.917Z,16.45
2019-05-05T04:59:27.426Z,14.58
2019-05-05T05:02:03.994Z,10.65
2019-05-05T05:04:54.581Z,12.55
2019-05-05T05:07:27.546Z,10.00
2019-05-05T05:09:59.204Z,7.22
2019-05-05T05:12:34.179Z,9.70
2019-05-05T05:15:06.273Z,7.08
2019-05-05T05:17:44.498Z,12.58
2019-05-05T05:20:16.104Z,13.10
2019-05-05T05:22:47.898Z,11.65
2019-05-05T05:25:19.262Z,15.78
2019-05-05T05:27:50.823Z,10.93
2019-05-05T05:30:24.272Z,8.50
2019-05-05T05:32:56.027Z,8.63
2019-05-05T05:35:27.735Z,7.70
2019-05-05T05:37:59.453Z,8.55
2019-05-05T05:40:47.793Z,6.05
2019-05-05T05:43:25.366Z,8.10
2019-05-05T05:46:04.621Z,7.67
2019-05-05T05:48:43.464Z,5.78
2019-05-05T05:51:19.486Z,9.30
2019-05-05T05:53:51.263Z,8.85
2019-05-05T05:56:24.972Z,9.30
2019-05-05T05:58:57.801Z,7.42
2019-05-05T06:01:29.296Z,6.62
2019-05-05T06:04:00.955Z,9.18
2019-05-05T06:06:34.510Z,8.53
2019-05-05T06:09:06.885Z,10.98
2019-05-05T06:11:38.864Z,11.38
2019-05-05T06:14:10.834Z,12.15
2019-05-05T06:16:44.504Z,9.65
2019-05-05T06:19:16.101Z,6.45
2019-05-05T06:21:49.042Z,7.12
2019-05-05T06:24:20.845Z,7.08
2019-05-05T06:26:54.716Z,5.55
2019-05-05T06:29:26.636Z,6.55
2019-05-05T06:31:58.101Z,6.15
2019-05-05T06:34:29.716Z,17.90
2019-05-05T06:37:01.500Z,11.22
2019-05-05T06:39:33.594Z,6.05
2019-05-05T06:42:24.551Z,12.43
2019-05-05T06:45:04.140Z,12.40
2019-05-05T06:47:39.860Z,12.07
2019-05-05T06:50:11.619Z,7.95
2019-05-05T06:52:46.535Z,12.45
2019-05-05T06:55:16.908Z,8.30
2019-05-05T06:57:48.727Z,10.98
2019-05-05T07:00:20.237Z,9.30
2019-05-05T07:02:53.928Z,9.38
2019-05-05T07:05:25.553Z,13.60
2019-05-05T07:07:57.428Z,23.87
2019-05-05T07:10:33.724Z,11.35
2019-05-05T07:13:05.264Z,24.50
2019-05-05T07:15:37.053Z,16.57
2019-05-05T07:18:09.005Z,7.28
2019-05-05T07:20:40.682Z,8.95
2019-05-05T07:23:14.515Z,8.73
2019-05-05T07:25:46.414Z,9.65
2019-05-05T07:28:18.106Z,11.88
2019-05-05T07:30:49.665Z,13.10
2019-05-05T07:33:21.456Z,12.80
2019-05-05T07:36:15.113Z,22.50
2019-05-05T07:41:19.297Z,14.07
2019-05-05T07:43:51.084Z,12.05
2019-05-05T07:46:24.142Z,5.33
2019-05-05T07:48:56.024Z,7.33
2019-05-05T07:51:27.951Z,9.35
2019-05-05T07:53:59.633Z,5.35
2019-05-05T07:56:31.354Z,8.08
2019-05-05T07:59:03.834Z,6.50
2019-05-05T08:01:35.692Z,15.25
2019-05-05T08:04:07.529Z,6.80
2019-05-05T08:06:39.029Z,13.98
2019-05-05T08:09:10.820Z,5.50
2019-05-05T08:11:44.484Z,5.00
2019-05-05T08:14:16.249Z,4.58
2019-05-05T08:17:14.550Z,6.67
2019-05-05T08:19:54.342Z,6.33
2019-05-05T08:22:26.256Z,7.62
2019-05-05T08:25:15.585Z,5.58
2019-05-05T08:27:53.692Z,9.23
2019-05-05T08:30:33.527Z,5.95
2019-05-05T08:33:05.562Z,9.70
2019-05-05T08:35:37.268Z,9.98
2019-05-05T08:38:09.079Z,16.37
2019-05-05T08:40:40.912Z,9.28
2019-05-05T08:43:13.866Z,9.18
2019-05-05T08:48:16.178Z,13.25
2019-05-05T08:50:48.896Z,12.40
2019-05-05T08:53:20.795Z,18.32
2019-05-05T08:55:54.546Z,11.53
2019-05-05T08:58:25.996Z,6.78
2019-05-05T09:00:57.661Z,9.35
2019-05-05T09:03:29.492Z,7.87
2019-05-05T09:06:00.912Z,19.45
2019-05-05T09:08:34.557Z,42.33
2019-05-05T09:13:36.608Z,7.45
2019-05-05T09:16:08.284Z,10.35
2019-05-05T09:18:58.175Z,7.90
2019-05-05T09:21:29.805Z,6.97
2019-05-05T09:24:18.181Z,6.22
2019-05-05T09:26:58.378Z,6.05
2019-05-05T09:29:34.833Z,8.63
2019-05-05T09:32:06.783Z,5.85
2019-05-05T09:34:38.329Z,11.12
2019-05-05T09:37:10.393Z,5.40
2019-05-05T09:39:43.685Z,11.30
2019-05-05T09:42:15.462Z,8.10
2019-05-05T09:44:47.088Z,9.33
2019-05-05T09:47:18.755Z,9.95
2019-05-05T09:49:50.639Z,8.10
2019-05-05T09:52:24.284Z,5.78
2019-05-05T09:54:55.695Z,6.67
2019-05-05T09:57:27.507Z,5.35
2019-05-05T10:00:13.831Z,8.83
2019-05-05T10:02:45.030Z,7.62
2019-05-05T10:05:16.855Z,8.98
2019-05-05T10:07:49.191Z,6.80
2019-05-05T10:10:20.951Z,10.88
2019-05-05T10:12:54.883Z,5.72
2019-05-05T10:15:26.113Z,13.55
2019-05-05T10:17:57.935Z,7.50
2019-05-05T10:20:29.536Z,5.50
2019-05-05T10:23:01.467Z,7.92
2019-05-05T10:25:53.968Z,5.08
2019-05-05T10:28:25.924Z,12.25
2019-05-05T10:30:57.605Z,7.00
2019-05-05T10:33:29.908Z,6.35
2019-05-05T10:36:01.559Z,8.57
2019-05-05T10:38:34.397Z,6.62
2019-05-05T10:41:06.421Z,5.45
2019-05-05T10:43:38.547Z,7.65
2019-05-05T10:46:10.234Z,6.55
2019-05-05T10:48:41.791Z,6.47
2019-05-05T10:51:13.347Z,3.83
2019-05-05T10:53:45.213Z,7.42
2019-05-05T10:56:17.408Z,5.95
2019-05-05T10:58:49.088Z,8.13
2019-05-05T11:01:20.790Z,6.67
2019-05-05T11:03:52.588Z,11.15
2019-05-05T11:06:24.392Z,7.15
2019-05-05T11:08:56.012Z,9.83
2019-05-05T11:11:27.761Z,8.20
2019-05-05T11:14:00.053Z,9.83
2019-05-05T11:16:31.879Z,6.95
2019-05-05T11:19:04.348Z,9.38
2019-05-05T11:21:36.152Z,8.80
2019-05-05T11:24:08.039Z,7.37
2019-05-05T11:26:39.919Z,10.25
2019-05-05T11:29:13.561Z,8.55
2019-05-05T11:31:45.654Z,8.08
2019-05-05T11:34:24.773Z,8.93
2019-05-05T11:37:11.442Z,7.55
2019-05-05T11:39:44.531Z,5.85
2019-05-05T11:42:17.270Z,7.75
2019-05-05T11:44:48.800Z,5.95
2019-05-05T11:47:21.287Z,6.05
2019-05-05T11:49:56.197Z,10.68
2019-05-05T11:52:26.417Z,6.08
2019-05-05T11:55:08.995Z,5.65
2019-05-05T11:57:33.442Z,9.00
2019-05-05T12:00:05.434Z,7.75
2019-05-05T12:02:37.351Z,6.15
2019-05-05T12:05:09.077Z,5.20
2019-05-05T12:07:40.750Z,8.23
2019-05-05T12:10:31.637Z,5.28
2019-05-05T12:13:04.431Z,7.35
2019-05-05T12:15:36.389Z,6.72
2019-05-05T12:18:08.109Z,7.58
2019-05-05T12:20:40.539Z,6.47
2019-05-05T12:23:12.322Z,6.40
2019-05-05T12:25:59.643Z,7.25
2019-05-05T12:28:39.142Z,6.12
2019-05-05T12:31:15.871Z,4.47
2019-05-05T12:33:47.623Z,3.87
2019-05-05T12:36:20.363Z,6.03
2019-05-05T12:38:54.408Z,5.50
2019-05-05T12:41:25.575Z,5.80
2019-05-05T12:43:57.262Z,6.28
2019-05-05T12:46:50.640Z,5.90
2019-05-05T12:49:25.256Z,9.03
2019-05-05T12:51:55.840Z,6.95
2019-05-05T12:54:27.454Z,6.00
2019-05-05T12:56:59.298Z,9.63
2019-05-05T12:59:31.144Z,5.47
2019-05-05T13:02:03.801Z,11.85
2019-05-05T13:04:35.728Z,5.95
2019-05-05T13:07:08.281Z,4.53
2019-05-05T13:09:40.228Z,6.95
2019-05-05T13:12:12.095Z,6.12
2019-05-05T13:14:44.259Z,8.53
2019-05-05T13:17:15.861Z,8.07
2019-05-05T13:19:55.670Z,5.42
2019-05-05T13:23:01.616Z,9.05
2019-05-05T13:25:58.469Z,5.95
2019-05-05T13:28:28.434Z,13.30
2019-05-05T13:31:00.037Z,7.33
2019-05-05T13:33:33.608Z,8.25
2019-05-05T13:36:05.107Z,8.08
2019-05-05T13:38:36.759Z,9.65
2019-05-05T13:41:08.424Z,8.55
2019-05-05T13:43:40.397Z,5.55
2019-05-05T13:46:36.927Z,3.37
2019-05-05T13:49:46.358Z,7.58
2019-05-05T13:52:18.272Z,4.12
2019-05-05T13:54:50.227Z,5.37
2019-05-05T13:57:21.989Z,6.30
2019-05-05T13:59:54.600Z,8.98
2019-05-05T14:02:26.590Z,5.75
2019-05-05T14:04:58.512Z,5.92
2019-05-05T14:07:30.352Z,9.58
2019-05-05T14:10:03.788Z,11.80
2019-05-05T14:12:36.483Z,5.30
2019-05-05T14:15:09.796Z,6.95
2019-05-05T14:17:43.943Z,6.92
2019-05-05T14:20:16.328Z,5.65
2019-05-05T14:22:47.944Z,5.95
2019-05-05T14:25:24.695Z,8.55
2019-05-05T14:27:56.337Z,5.25
2019-05-05T14:30:49.862Z,5.20
2019-05-05T14:33:25.858Z,8.98
2019-05-05T14:36:13.686Z,6.53
2019-05-05T14:38:51.045Z,7.37
2019-05-05T14:41:22.640Z,4.67
2019-05-05T14:43:56.563Z,4.25
2019-05-05T14:46:28.263Z,5.10
2019-05-05T14:48:59.946Z,3.35
2019-05-05T14:51:34.021Z,6.92
2019-05-05T14:54:10.814Z,2.87
2019-05-05T14:56:44.062Z,8.75
2019-05-05T14:59:16.058Z,4.67
2019-05-05T15:01:47.961Z,8.58
2019-05-05T15:04:20.853Z,5.72
2019-05-05T15:07:30.094Z,9.83
2019-05-05T15:10:36.569Z,4.62
2019-05-05T15:13:10.074Z,4.30
2019-05-05T15:15:42.071Z,8.90
2019-05-05T15:18:14.653Z,5.17
2019-05-05T15:20:46.629Z,4.58
2019-05-05T15:23:18.484Z,4.15
2019-05-05T15:25:50.215Z,5.47
2019-05-05T15:28:21.931Z,8.73
2019-05-05T15:30:54.504Z,6.55
2019-05-05T15:33:26.587Z,4.95
2019-05-05T15:35:58.408Z,4.87
2019-05-05T15:38:30.325Z,6.12
2019-05-05T15:41:03.880Z,3.40
2019-05-05T15:43:35.424Z,7.95
2019-05-05T15:46:07.347Z,5.37
2019-05-05T15:48:39.276Z,5.78
2019-05-05T15:51:10.931Z,3.77
2019-05-05T15:53:42.487Z,6.12
2019-05-05T15:56:14.399Z,5.00
2019-05-05T15:58:46.242Z,6.35
2019-05-05T16:01:18.127Z,5.50
2019-05-05T16:03:49.757Z,3.90
2019-05-05T16:06:23.636Z,5.85
2019-05-05T16:08:56.672Z,3.65
2019-05-05T16:11:28.841Z,7.12
2019-05-05T16:14:01.213Z,4.58
2019-05-05T16:16:57.912Z,7.70
2019-05-05T16:19:55.082Z,5.50
2019-05-05T16:22:46.183Z,8.45
2019-05-05T16:25:17.851Z,6.45
2019-05-05T16:27:49.723Z,6.53
2019-05-05T16:30:23.562Z,5.70
2019-05-05T16:32:55.573Z,8.38
2019-05-05T16:35:27.396Z,6.60
2019-05-05T16:37:58.944Z,7.53
2019-05-05T16:40:30.599Z,5.17
2019-05-05T16:43:01.999Z,4.25
2019-05-05T16:45:34.138Z,4.50
2019-05-05T16:48:05.872Z,4.08
2019-05-05T16:50:37.724Z,11.60
2019-05-05T16:53:11.078Z,4.85
2019-05-05T16:55:50.401Z,9.13
2019-05-05T16:58:23.973Z,14.23
2019-05-05T17:00:55.850Z,7.90
2019-05-05T17:03:27.718Z,7.53
2019-05-05T17:05:59.657Z,7.33
2019-05-05T17:08:31.362Z,8.20
2019-05-05T17:11:03.197Z,9.18
2019-05-05T17:13:44.042Z,11.12
2019-05-05T17:16:28.882Z,16.70
2019-05-05T17:19:19.753Z,10.58
2019-05-05T17:22:09.214Z,12.10
2019-05-05T17:24:40.911Z,20.17
2019-05-05T17:27:13.911Z,22.13
2019-05-05T17:32:16.194Z,15.75
2019-05-05T17:34:47.851Z,15.25
2019-05-05T17:37:19.865Z,23.22
2019-05-05T17:39:57.979Z,28.05
2019-05-05T17:42:38.911Z,29.95
2019-05-05T17:45:23.921Z,30.77
2019-05-05T17:48:09.633Z,19.35
2019-05-05T17:50:59.179Z,28.75
2019-05-05T17:53:48.857Z,15.68
2019-05-05T17:56:20.873Z,8.90
2019-05-05T17:58:53.802Z,9.95
2019-05-05T18:01:25.735Z,9.55
2019-05-05T18:03:57.480Z,14.15
2019-05-05T18:06:39.750Z,14.93
2019-05-05T18:09:39.238Z,15.70
2019-05-05T18:12:29.850Z,12.70
2019-05-05T18:15:04.595Z,11.60
2019-05-05T18:17:37.132Z,15.53
2019-05-05T18:20:09.099Z,15.43
2019-05-05T18:22:40.444Z,11.40
2019-05-05T18:25:11.962Z,11.78
2019-05-05T18:27:43.932Z,15.85
2019-05-05T18:30:16.173Z,18.60
2019-05-05T18:32:48.378Z,18.33
2019-05-05T18:35:20.162Z,17.50
2019-05-05T18:37:54.327Z,14.70
2019-05-05T18:40:25.799Z,37.83
2019-05-05T18:42:59.116Z,122.85
2019-05-05T18:45:30.542Z,101.07
2019-05-05T18:48:04.399Z,73.80
2019-05-05T18:50:36.162Z,29.52
2019-05-05T18:53:08.069Z,25.88
2019-05-05T18:55:39.522Z,28.42
2019-05-05T18:58:12.247Z,38.08
2019-05-05T19:01:03.802Z,39.13
2019-05-05T19:03:54.510Z,49.88
2019-05-05T19:06:44.045Z,37.65
2019-05-05T19:09:19.999Z,17.62
2019-05-05T19:11:52.020Z,22.45
2019-05-05T19:14:24.335Z,20.92
2019-05-05T19:16:56.174Z,15.88
2019-05-05T19:19:27.742Z,14.00
2019-05-05T19:22:05.523Z,16.42
2019-05-05T19:24:37.104Z,11.22
2019-05-05T19:27:09.241Z,12.15
2019-05-05T19:29:41.104Z,11.12
2019-05-05T19:32:13.094Z,14.80
2019-05-05T19:34:45.034Z,18.48
2019-05-05T19:37:16.685Z,36.40
2019-05-05T19:39:48.404Z,47.00
2019-05-05T19:42:20.072Z,43.75
2019-05-05T19:44:51.768Z,39.18
2019-05-05T19:47:24.635Z,32.93
2019-05-05T19:50:14.411Z,28.23
2019-05-05T19:52:47.214Z,24.50
2019-05-05T19:55:19.049Z,13.58
2019-05-05T19:57:51.160Z,7.03
2019-05-05T20:00:23.433Z,7.28
2019-05-05T20:03:04.319Z,10.68
2019-05-05T20:05:30.248Z,7.35
2019-05-05T20:08:03.909Z,10.93
2019-05-05T20:10:35.522Z,7.87
2019-05-05T20:13:07.079Z,7.20
2019-05-05T20:15:48.152Z,9.05
2019-05-05T20:18:21.069Z,7.53
2019-05-05T20:21:03.623Z,9.40
2019-05-05T20:25:56.872Z,8.98
2019-05-05T20:28:28.713Z,8.75
2019-05-05T20:31:00.626Z,11.05
2019-05-05T20:33:41.480Z,7.75
2019-05-05T20:36:16.424Z,6.70
2019-05-05T20:38:50.249Z,6.95
2019-05-05T20:41:24.918Z,9.13
2019-05-05T20:43:56.935Z,8.33
2019-05-05T20:46:28.526Z,12.10
2019-05-05T20:49:00.130Z,7.70
2019-05-05T20:51:33.841Z,8.05
2019-05-05T20:54:05.366Z,5.35
2019-05-05T20:56:37.072Z,7.00
2019-05-05T20:59:08.905Z,7.72
2019-05-05T21:01:40.725Z,6.87
2019-05-05T21:04:14.096Z,4.87
2019-05-05T21:06:46.937Z,6.85
2019-05-05T21:09:18.394Z,5.08
2019-05-05T21:11:50.165Z,4.30
2019-05-05T21:14:32.008Z,5.10
2019-05-05T21:16:56.563Z,5.95
2019-05-05T21:19:28.294Z,5.60
2019-05-05T21:22:04.103Z,3.90
2019-05-05T21:24:35.853Z,10.75
2019-05-05T21:27:07.597Z,6.50
2019-05-05T21:29:42.234Z,9.55
2019-05-05T21:32:13.792Z,6.37
2019-05-05T21:34:45.636Z,10.50
2019-05-05T21:37:17.376Z,9.85
2019-05-05T21:39:49.394Z,5.50
2019-05-05T21:42:21.320Z,6.80
2019-05-05T21:44:53.888Z,5.85
2019-05-05T21:47:25.808Z,2.42
2019-05-05T21:49:57.296Z,3.55
2019-05-05T21:52:41.282Z,6.80
2019-05-05T21:55:33.894Z,5.97
2019-05-05T21:58:18.412Z,5.12
2019-05-05T22:01:04.670Z,4.05
2019-05-05T22:03:38.543Z,5.50
2019-05-05T22:06:10.238Z,5.57
2019-05-05T22:08:41.978Z,4.58
2019-05-05T22:11:14.668Z,4.15
2019-05-05T22:13:47.027Z,4.42
2019-05-05T22:16:18.914Z,4.58
2019-05-05T22:18:50.607Z,5.85
2019-05-05T22:21:31.412Z,7.58
2019-05-05T22:24:19.728Z,5.95
2019-05-05T22:26:51.430Z,9.50
2019-05-05T22:29:24.950Z,4.72
2019-05-05T22:31:56.864Z,6.42
2019-05-05T22:34:29.143Z,3.77
2019-05-05T22:37:00.962Z,3.47
2019-05-05T22:39:33.806Z,2.22
2019-05-05T22:42:05.490Z,4.47
2019-05-05T22:44:37.263Z,2.77
2019-05-05T22:47:09.138Z,2.33
2019-05-05T22:49:41.180Z,2.80
2019-05-05T22:52:14.458Z,2.60
2019-05-05T22:54:46.051Z,2.30
2019-05-05T22:57:17.868Z,5.12
2019-05-05T22:59:49.729Z,3.98
2019-05-05T23:02:24.461Z,4.00
2019-05-05T23:05:11.923Z,2.50
2019-05-05T23:07:43.901Z,3.67
2019-05-05T23:10:16.090Z,5.12
2019-05-05T23:12:47.729Z,2.35
2019-05-05T23:15:19.751Z,3.37
2019-05-05T23:18:06.682Z,2.33
2019-05-05T23:21:19.489Z,3.58
2019-05-05T23:24:05.407Z,2.58
2019-05-05T23:26:38.731Z,2.42
2019-05-05T23:31:40.798Z,3.40
2019-05-05T23:34:14.567Z,4.08
2019-05-05T23:36:46.159Z,2.90
2019-05-05T23:39:17.903Z,3.15
2019-05-05T23:41:49.645Z,3.50
2019-05-05T23:44:21.456Z,6.72
2019-05-05T23:46:53.887Z,4.30
2019-05-05T23:49:25.640Z,5.70
2019-05-05T23:51:57.558Z,4.22
2019-05-05T23:54:29.144Z,3.70
2019-05-05T23:57:00.843Z,4.65
2019-05-05T23:59:32.509Z,4.60
